Portada
METAR-TAF:

METAR-TAF

Aeroports :

Aeroport de Svalbard-Longyear

Longyearbyen, Noruega

latitud: 78-15N, longitud: 015-28E, altitud: 2 m

Observació

L'informe es va fer fa 44 minuts, a les 23:50 UTC
Vent 12 kt del Oest/Sud-Oest
Temperatura 6°C
Humitat 75%
Pressió 1011 hPa
Visibilitat 10 km o més
Cel cobert a una alçada de 1700 ft
xàfecs en les proximitats

METAR: ENSB 152350Z 25012KT 9999 VCSH OVC017 06/02 Q1011 RMK WIND 1400FT 24014KT

Hora: 02:34 (00:34 UTC)

Pronòstic

Pronòstic vàlid del 16 a les 00 UTC al 16 a les 24 UTC
Vent 12 kt del Oest/Sud-Oest
Visibilitat 10 km o més
Núvols disperses a una alçada de 1500 ft
Cel ennuvolat a una alçada de 2500 ft
Temporalment
l' 16 a les 00 UTC al 16 a les 12 UTC
Cel ennuvolat a una alçada de 1200 ft

TAF: ENSB 1600/1624 25012KT 9999 SCT015 BKN025 TEMPO 1600/1612 BKN012

Observacions i pronòstics meteorològics de més de 4000 aeroports (METAR i TAF).

Les estacions disponibles són els punts grocs i vermells al mapa.

Posi el ratolí al punt desitjat per veure el nom de l'estació.

Feu clic per veure les observacions i els pronòstics meteorològics.

Per canviar el mapa: feu clic els botons verds amb una creu de color negre per apropar; al botó verd amb un guió per allunyar la imatge; o en les fletxes verdes per a mapes adjacents.


METAR-TAF: